createdAt,value
2019-01-15T00:00:47.958Z,2.10
2019-01-15T00:03:15.590Z,2.00
2019-01-15T00:05:43.202Z,2.00
2019-01-15T00:08:10.792Z,1.90
2019-01-15T00:10:38.487Z,2.00
2019-01-15T00:13:06.244Z,2.00
2019-01-15T00:15:34.112Z,2.00
2019-01-15T00:18:01.805Z,2.00
2019-01-15T00:20:31.250Z,2.10
2019-01-15T00:22:59.014Z,2.00
2019-01-15T00:25:26.647Z,2.10
2019-01-15T00:27:54.658Z,2.10
2019-01-15T00:30:22.389Z,2.10
2019-01-15T00:32:50.017Z,2.10
2019-01-15T00:35:17.728Z,2.00
2019-01-15T00:37:48.155Z,2.10
2019-01-15T00:40:19.189Z,2.00
2019-01-15T00:42:46.766Z,2.00
2019-01-15T00:45:14.639Z,1.90
2019-01-15T00:47:42.229Z,1.90
2019-01-15T00:50:11.881Z,1.90
2019-01-15T00:52:39.753Z,1.90
2019-01-15T00:55:09.661Z,1.80
2019-01-15T00:57:37.321Z,1.80
2019-01-15T01:00:09.597Z,1.80
2019-01-15T01:02:37.205Z,1.80
2019-01-15T01:05:05.590Z,1.70
2019-01-15T01:07:33.517Z,1.70
2019-01-15T01:10:02.858Z,1.70
2019-01-15T01:12:30.647Z,1.70
2019-01-15T01:14:58.657Z,1.60
2019-01-15T01:17:26.388Z,1.60
2019-01-15T01:19:54.196Z,1.50
2019-01-15T01:22:23.347Z,1.50
2019-01-15T01:24:51.036Z,1.50
2019-01-15T01:27:18.747Z,1.50
2019-01-15T01:29:46.935Z,1.50
2019-01-15T01:32:14.757Z,1.50
2019-01-15T01:34:42.440Z,1.40
2019-01-15T01:37:10.337Z,1.40
2019-01-15T01:39:39.926Z,1.30
2019-01-15T01:42:07.520Z,1.30
2019-01-15T01:44:35.459Z,1.30
2019-01-15T01:47:03.232Z,1.30
2019-01-15T01:49:32.224Z,1.20
2019-01-15T01:51:59.916Z,1.30
2019-01-15T01:54:27.598Z,1.20
2019-01-15T01:56:56.431Z,1.20
2019-01-15T01:59:24.330Z,1.20
2019-01-15T02:01:51.988Z,1.20
2019-01-15T02:04:20.834Z,1.20
2019-01-15T02:06:51.276Z,1.20
2019-01-15T02:09:18.922Z,1.10
2019-01-15T02:11:52.975Z,1.20
2019-01-15T02:14:21.738Z,1.20
2019-01-15T02:16:49.509Z,1.20
2019-01-15T02:19:17.593Z,1.30
2019-01-15T02:21:45.345Z,1.20
2019-01-15T02:24:13.009Z,1.20
2019-01-15T02:26:42.077Z,1.20
2019-01-15T02:29:10.729Z,1.30
2019-01-15T02:31:38.383Z,1.30
2019-01-15T02:34:06.265Z,1.30
2019-01-15T02:36:33.896Z,1.40
2019-01-15T02:39:03.420Z,1.40
2019-01-15T02:41:31.121Z,1.40
2019-01-15T02:44:01.129Z,1.40
2019-01-15T02:46:28.853Z,1.40
2019-01-15T02:48:56.518Z,1.40
2019-01-15T02:51:24.147Z,1.40
2019-01-15T02:53:51.785Z,1.40
2019-01-15T02:56:19.539Z,1.50
2019-01-15T02:58:47.197Z,1.40
2019-01-15T03:01:14.885Z,1.40
2019-01-15T03:03:42.663Z,1.40
2019-01-15T03:06:10.382Z,1.50
2019-01-15T03:08:39.881Z,1.40
2019-01-15T03:11:07.660Z,1.50
2019-01-15T03:13:35.424Z,1.40
2019-01-15T03:16:03.377Z,1.40
2019-01-15T03:18:32.246Z,1.40
2019-01-15T03:21:04.129Z,1.50
2019-01-15T03:23:31.742Z,1.40
2019-01-15T03:26:00.506Z,1.40
2019-01-15T03:28:28.122Z,1.40
2019-01-15T03:30:55.700Z,1.40
2019-01-15T03:33:23.666Z,1.50
2019-01-15T03:35:51.735Z,1.40
2019-01-15T03:38:19.361Z,1.50
2019-01-15T03:40:47.013Z,1.50
2019-01-15T03:43:14.797Z,1.40
2019-01-15T03:45:42.404Z,1.40
2019-01-15T03:48:11.398Z,1.40
2019-01-15T03:50:39.069Z,1.40
2019-01-15T03:53:06.678Z,1.40
2019-01-15T03:55:34.282Z,1.40
2019-01-15T03:58:01.957Z,1.40
2019-01-15T04:00:29.559Z,1.40
2019-01-15T04:03:00.387Z,1.40
2019-01-15T04:05:28.187Z,1.50
2019-01-15T04:07:57.549Z,1.50
2019-01-15T04:10:26.168Z,1.50
2019-01-15T04:12:53.724Z,1.50
2019-01-15T04:15:23.606Z,1.50
2019-01-15T04:17:51.728Z,1.50
2019-01-15T04:20:19.654Z,1.50
2019-01-15T04:22:47.364Z,1.50
2019-01-15T04:25:15.732Z,1.50
2019-01-15T04:27:44.951Z,1.50
2019-01-15T04:30:17.769Z,1.50
2019-01-15T04:32:45.824Z,1.50
2019-01-15T04:35:13.493Z,1.50
2019-01-15T04:37:41.241Z,1.50
2019-01-15T04:40:13.018Z,1.50
2019-01-15T04:42:40.675Z,1.50
2019-01-15T04:45:10.458Z,1.50
2019-01-15T04:47:38.186Z,1.50
2019-01-15T04:50:06.047Z,1.50
2019-01-15T04:52:33.969Z,1.50
2019-01-15T04:55:01.714Z,1.60
2019-01-15T04:57:29.346Z,1.50
2019-01-15T04:59:56.961Z,1.50
2019-01-15T05:02:25.669Z,1.50
2019-01-15T05:04:53.319Z,1.50
2019-01-15T05:07:20.998Z,1.50
2019-01-15T05:09:48.934Z,1.50
2019-01-15T05:12:16.517Z,1.50
2019-01-15T05:14:44.139Z,1.60
2019-01-15T05:17:11.948Z,1.70
2019-01-15T05:19:39.582Z,1.60
2019-01-15T05:22:08.481Z,1.60
2019-01-15T05:24:36.279Z,1.60
2019-01-15T05:27:03.911Z,1.60
2019-01-15T05:29:31.684Z,1.60
2019-01-15T05:31:59.402Z,1.60
2019-01-15T05:34:28.098Z,1.70
2019-01-15T05:36:57.551Z,1.70
2019-01-15T05:39:25.587Z,1.70
2019-01-15T05:41:53.173Z,1.70
2019-01-15T05:44:20.762Z,1.80
2019-01-15T05:46:48.461Z,1.80
2019-01-15T05:49:16.082Z,1.90
2019-01-15T05:51:45.712Z,1.90
2019-01-15T05:54:13.326Z,1.90
2019-01-15T05:56:41.005Z,2.00
2019-01-15T05:59:08.606Z,2.00
2019-01-15T06:01:36.237Z,2.00
2019-01-15T06:04:04.105Z,2.00
2019-01-15T06:06:33.856Z,1.90
2019-01-15T06:09:03.293Z,2.00
2019-01-15T06:11:31.040Z,2.00
2019-01-15T06:13:58.784Z,2.00
2019-01-15T06:16:26.456Z,2.00
2019-01-15T06:18:56.610Z,2.10
2019-01-15T06:21:24.323Z,2.10
2019-01-15T06:23:52.019Z,2.10
2019-01-15T06:26:19.662Z,2.10
2019-01-15T06:28:47.266Z,2.00
2019-01-15T06:31:16.132Z,2.00
2019-01-15T06:33:43.761Z,2.00
2019-01-15T06:36:11.380Z,2.00
2019-01-15T06:38:39.177Z,2.10
2019-01-15T06:41:07.181Z,2.10
2019-01-15T06:43:39.942Z,2.20
2019-01-15T06:46:11.770Z,2.20
2019-01-15T06:48:39.349Z,2.20
2019-01-15T06:51:06.922Z,2.20
2019-01-15T06:53:34.653Z,2.30
2019-01-15T06:56:02.266Z,2.20
2019-01-15T06:58:32.215Z,2.30
2019-01-15T07:00:59.822Z,2.40
2019-01-15T07:03:27.396Z,2.20
2019-01-15T07:05:54.978Z,2.30
2019-01-15T07:08:22.803Z,2.30
2019-01-15T07:10:50.372Z,2.30
2019-01-15T07:13:18.017Z,2.20
2019-01-15T07:15:45.628Z,2.20
2019-01-15T07:18:13.416Z,2.20
2019-01-15T07:20:41.117Z,2.20
2019-01-15T07:23:08.839Z,2.20
2019-01-15T07:25:36.399Z,2.20
2019-01-15T07:28:04.254Z,2.10
2019-01-15T07:30:38.284Z,2.10
2019-01-15T07:33:06.883Z,2.20
2019-01-15T07:35:34.495Z,2.20
2019-01-15T07:38:02.205Z,2.20
2019-01-15T07:40:29.946Z,2.10
2019-01-15T07:42:59.233Z,2.20
2019-01-15T07:45:26.888Z,2.20
2019-01-15T07:47:55.763Z,2.00
2019-01-15T07:50:23.387Z,2.10
2019-01-15T07:52:51.256Z,2.00
2019-01-15T07:55:18.849Z,2.00
2019-01-15T07:57:46.687Z,2.00
2019-01-15T08:00:18.379Z,2.00
2019-01-15T08:02:46.091Z,2.00
2019-01-15T08:05:14.789Z,1.90
2019-01-15T08:07:42.561Z,1.90
2019-01-15T08:10:11.556Z,2.10
2019-01-15T08:12:44.443Z,1.90
2019-01-15T08:15:15.091Z,2.10
2019-01-15T08:17:44.153Z,2.10
2019-01-15T08:20:12.513Z,2.10
2019-01-15T08:22:42.806Z,2.10
2019-01-15T08:25:11.172Z,2.10
2019-01-15T08:27:40.121Z,2.20
2019-01-15T08:30:37.221Z,2.20
2019-01-15T08:33:06.133Z,2.30
2019-01-15T08:35:33.750Z,2.30
2019-01-15T08:38:01.732Z,2.30
2019-01-15T08:40:29.520Z,2.30
2019-01-15T08:42:57.183Z,2.30
2019-01-15T08:45:26.301Z,2.30
2019-01-15T08:48:03.102Z,2.40
2019-01-15T08:50:30.963Z,2.40
2019-01-15T08:53:00.018Z,2.40
2019-01-15T08:55:27.666Z,2.30
2019-01-15T08:57:55.351Z,2.50
2019-01-15T09:00:22.990Z,2.60
2019-01-15T09:02:53.418Z,2.50
2019-01-15T09:05:21.136Z,2.70
2019-01-15T09:07:51.232Z,2.70
2019-01-15T09:10:18.933Z,2.50
2019-01-15T09:12:47.067Z,2.40
2019-01-15T09:15:15.658Z,2.40
2019-01-15T09:17:43.378Z,2.40
2019-01-15T09:20:14.122Z,2.40
2019-01-15T09:22:41.935Z,2.50
2019-01-15T09:25:09.547Z,2.40
2019-01-15T09:27:37.369Z,2.50
2019-01-15T09:30:07.433Z,2.60
2019-01-15T09:32:35.040Z,2.70
2019-01-15T09:35:05.325Z,2.70
2019-01-15T09:37:33.356Z,2.60
2019-01-15T09:40:00.955Z,2.70
2019-01-15T09:42:28.837Z,2.70
2019-01-15T09:44:56.579Z,2.70
2019-01-15T09:47:24.439Z,2.80
2019-01-15T09:49:53.206Z,2.60
2019-01-15T09:52:20.844Z,2.70
2019-01-15T09:54:48.736Z,2.70
2019-01-15T09:57:16.438Z,2.70
2019-01-15T09:59:45.562Z,2.80
2019-01-15T10:02:13.197Z,2.70
2019-01-15T10:04:42.263Z,2.60
2019-01-15T10:07:09.942Z,2.70
2019-01-15T10:09:37.557Z,2.70
2019-01-15T10:12:15.997Z,2.80
2019-01-15T10:14:43.628Z,2.70
2019-01-15T10:17:11.315Z,2.70
2019-01-15T10:19:39.001Z,2.80
2019-01-15T10:22:08.478Z,2.70
2019-01-15T10:24:36.483Z,2.80
2019-01-15T10:27:04.507Z,2.70
2019-01-15T10:29:32.146Z,2.80
2019-01-15T10:32:38.308Z,2.80
2019-01-15T10:35:19.733Z,2.60
2019-01-15T10:37:47.677Z,2.70
2019-01-15T10:40:15.272Z,2.80
2019-01-15T10:42:42.972Z,2.70
2019-01-15T10:45:10.692Z,2.80
2019-01-15T10:47:38.577Z,2.90
2019-01-15T10:50:06.853Z,2.90
2019-01-15T10:52:34.657Z,2.90
2019-01-15T10:55:02.225Z,2.90
2019-01-15T10:57:32.093Z,3.00
2019-01-15T11:00:01.090Z,3.00
2019-01-15T11:02:30.582Z,3.00
2019-01-15T11:05:01.358Z,3.00
2019-01-15T11:07:29.193Z,3.00
2019-01-15T11:09:56.751Z,3.20
2019-01-15T11:12:25.371Z,3.20
2019-01-15T11:14:56.271Z,3.10
2019-01-15T11:17:29.732Z,3.10
2019-01-15T11:19:57.347Z,3.10
2019-01-15T11:22:26.048Z,3.10
2019-01-15T11:24:53.676Z,3.20
2019-01-15T11:27:21.374Z,3.30
2019-01-15T11:29:49.083Z,3.50
2019-01-15T11:32:16.657Z,3.50
2019-01-15T11:34:47.266Z,3.50
2019-01-15T11:37:14.820Z,3.20
2019-01-15T11:39:42.465Z,3.50
2019-01-15T11:42:10.086Z,3.60
2019-01-15T11:44:38.055Z,3.50
2019-01-15T11:47:05.645Z,3.70
2019-01-15T11:49:33.277Z,3.60
2019-01-15T11:52:00.893Z,3.50
2019-01-15T11:54:28.436Z,3.60
2019-01-15T11:56:56.054Z,3.60
2019-01-15T11:59:23.974Z,3.70
2019-01-15T12:01:59.365Z,3.80
2019-01-15T12:04:46.103Z,3.80
2019-01-15T12:07:31.815Z,3.70
2019-01-15T12:10:27.861Z,3.90
2019-01-15T12:13:23.310Z,3.80
2019-01-15T12:16:25.173Z,3.80
2019-01-15T12:19:07.956Z,3.80
2019-01-15T12:21:53.258Z,3.80
2019-01-15T12:24:30.146Z,3.80
2019-01-15T12:27:13.842Z,3.90
2019-01-15T12:30:10.018Z,3.80
2019-01-15T12:33:12.039Z,3.90
2019-01-15T12:36:10.872Z,3.90
2019-01-15T12:38:57.950Z,3.90
2019-01-15T12:41:44.546Z,4.00
2019-01-15T12:44:31.742Z,4.00
2019-01-15T12:47:30.809Z,3.90
2019-01-15T12:50:18.437Z,4.00
2019-01-15T12:53:21.038Z,4.00
2019-01-15T12:56:06.721Z,4.00
2019-01-15T12:58:52.491Z,4.10
2019-01-15T13:01:40.433Z,4.00
2019-01-15T13:04:24.477Z,4.10
2019-01-15T13:07:07.370Z,4.20
2019-01-15T13:09:52.840Z,4.10
2019-01-15T13:12:57.912Z,4.20
2019-01-15T13:15:38.389Z,4.20
2019-01-15T13:18:18.923Z,4.10
2019-01-15T13:21:06.093Z,4.10
2019-01-15T13:24:02.125Z,4.20
2019-01-15T13:26:47.865Z,4.20
2019-01-15T13:29:36.066Z,4.20
2019-01-15T13:32:25.992Z,4.20
2019-01-15T13:35:13.626Z,4.10
2019-01-15T13:37:53.618Z,4.20
2019-01-15T13:40:34.385Z,4.20
2019-01-15T13:43:24.160Z,4.30
2019-01-15T13:46:25.979Z,4.20
2019-01-15T13:49:18.930Z,4.20
2019-01-15T13:52:04.836Z,4.20
2019-01-15T13:54:50.965Z,4.20
2019-01-15T13:57:44.061Z,4.20
2019-01-15T14:00:32.713Z,4.30
2019-01-15T14:03:18.059Z,4.40
2019-01-15T14:06:17.391Z,4.40
2019-01-15T14:09:03.096Z,4.40
2019-01-15T14:11:47.791Z,4.40
2019-01-15T14:14:43.802Z,4.50
2019-01-15T14:17:42.700Z,4.50
2019-01-15T14:20:28.681Z,4.50
2019-01-15T14:23:23.481Z,4.50
2019-01-15T14:26:06.881Z,4.50
2019-01-15T14:28:59.617Z,4.60
2019-01-15T14:31:56.660Z,4.50
2019-01-15T14:34:55.747Z,4.50
2019-01-15T14:37:54.714Z,4.60
2019-01-15T14:40:57.504Z,4.60
2019-01-15T14:43:43.273Z,4.60
2019-01-15T14:46:42.192Z,4.70
2019-01-15T14:49:28.957Z,4.60
2019-01-15T14:52:15.490Z,4.70
2019-01-15T14:55:01.085Z,4.60
2019-01-15T14:57:51.173Z,4.60
2019-01-15T15:00:38.843Z,4.60
2019-01-15T15:03:16.403Z,4.60
2019-01-15T15:06:09.170Z,4.60
2019-01-15T15:08:56.484Z,4.70
2019-01-15T15:11:42.165Z,4.60
2019-01-15T15:14:26.993Z,4.60
2019-01-15T15:17:20.366Z,4.70
2019-01-15T15:20:06.286Z,4.70
2019-01-15T15:23:00.749Z,4.80
2019-01-15T15:25:54.139Z,4.80
2019-01-15T15:28:39.174Z,4.70
2019-01-15T15:31:38.159Z,4.80
2019-01-15T15:34:33.796Z,4.80
2019-01-15T15:37:23.623Z,4.80
2019-01-15T15:40:10.469Z,4.80
2019-01-15T15:43:01.116Z,4.90
2019-01-15T15:45:46.693Z,4.80
2019-01-15T15:48:41.651Z,4.90
2019-01-15T15:51:31.927Z,4.90
2019-01-15T15:54:33.294Z,4.80
2019-01-15T15:57:20.813Z,4.90
2019-01-15T16:00:11.119Z,4.90
2019-01-15T16:02:57.006Z,4.90
2019-01-15T16:05:44.315Z,4.80
2019-01-15T16:08:30.173Z,4.80
2019-01-15T16:11:23.468Z,4.80
2019-01-15T16:14:18.968Z,4.90
2019-01-15T16:17:12.006Z,4.80
2019-01-15T16:20:00.727Z,4.80
2019-01-15T16:22:45.741Z,4.80
2019-01-15T16:25:35.144Z,4.80
2019-01-15T16:28:20.689Z,4.80
2019-01-15T16:31:06.193Z,4.90
2019-01-15T16:34:00.454Z,4.80
2019-01-15T16:36:45.906Z,4.80
2019-01-15T16:39:32.259Z,4.80
2019-01-15T16:42:39.533Z,4.80
2019-01-15T16:45:19.698Z,4.80
2019-01-15T16:48:09.371Z,4.90
2019-01-15T16:50:59.905Z,4.80
2019-01-15T16:53:45.779Z,4.80
2019-01-15T16:56:41.805Z,4.80
2019-01-15T16:59:31.518Z,4.80
2019-01-15T17:02:17.196Z,4.80
2019-01-15T17:05:02.918Z,4.80
2019-01-15T17:07:57.874Z,4.80
2019-01-15T17:11:00.564Z,4.80
2019-01-15T17:13:47.829Z,4.80
2019-01-15T17:16:49.372Z,4.80
2019-01-15T17:19:51.473Z,4.80
2019-01-15T17:22:54.349Z,4.80
2019-01-15T17:25:40.878Z,4.80
2019-01-15T17:28:37.523Z,4.70
2019-01-15T17:31:30.477Z,4.80
2019-01-15T17:34:18.862Z,4.90
2019-01-15T17:37:13.434Z,4.90
2019-01-15T17:40:02.906Z,4.90
2019-01-15T17:42:52.200Z,4.90
2019-01-15T17:45:48.313Z,4.80
2019-01-15T17:48:35.034Z,4.80
2019-01-15T17:51:25.936Z,4.80
2019-01-15T17:54:33.006Z,4.70
2019-01-15T17:57:18.852Z,4.60
2019-01-15T18:00:08.884Z,4.60
2019-01-15T18:03:05.071Z,4.60
2019-01-15T18:05:51.839Z,4.60
2019-01-15T18:08:40.663Z,4.60
2019-01-15T18:11:58.642Z,4.50
2019-01-15T18:14:45.595Z,4.40
2019-01-15T18:17:31.837Z,4.40
2019-01-15T18:20:38.935Z,4.30
2019-01-15T18:23:17.290Z,4.40
2019-01-15T18:26:18.761Z,4.40
2019-01-15T18:29:09.183Z,4.40
2019-01-15T18:32:39.997Z,4.40
2019-01-15T18:35:24.658Z,4.40
2019-01-15T18:38:11.695Z,4.40
2019-01-15T18:40:58.542Z,4.40
2019-01-15T18:43:51.562Z,4.40
2019-01-15T18:47:01.199Z,4.40
2019-01-15T18:49:46.517Z,4.40
2019-01-15T18:52:46.780Z,4.30
2019-01-15T18:55:36.881Z,4.30
2019-01-15T18:58:18.509Z,4.20
2019-01-15T19:00:57.032Z,4.20
2019-01-15T19:04:04.268Z,4.20
2019-01-15T19:06:55.668Z,4.20
2019-01-15T19:09:58.872Z,4.20
2019-01-15T19:12:54.573Z,4.30
2019-01-15T19:15:44.085Z,4.20
2019-01-15T19:18:25.175Z,4.20
2019-01-15T19:21:17.269Z,4.20
2019-01-15T19:24:14.553Z,4.20
2019-01-15T19:27:08.379Z,4.20
2019-01-15T19:30:04.176Z,4.20
2019-01-15T19:32:55.834Z,4.20
2019-01-15T19:35:53.865Z,4.20
2019-01-15T19:38:47.529Z,4.20
2019-01-15T19:41:33.495Z,4.20
2019-01-15T19:44:28.656Z,4.20
2019-01-15T19:47:24.964Z,4.20
2019-01-15T19:50:14.017Z,4.20
2019-01-15T19:53:19.482Z,4.20
2019-01-15T19:55:56.126Z,4.20
2019-01-15T19:58:34.493Z,4.20
2019-01-15T20:01:14.177Z,4.20
2019-01-15T20:04:03.552Z,4.20
2019-01-15T20:06:55.077Z,4.20
2019-01-15T20:09:40.856Z,4.20
2019-01-15T20:12:34.372Z,4.20
2019-01-15T20:15:28.202Z,4.10
2019-01-15T20:18:09.837Z,4.10
2019-01-15T20:21:14.926Z,4.10
2019-01-15T20:24:08.951Z,4.10
2019-01-15T20:26:54.399Z,4.20
2019-01-15T20:30:04.363Z,4.20
2019-01-15T20:32:54.973Z,4.10
2019-01-15T20:35:42.358Z,4.10
2019-01-15T20:38:36.740Z,4.10
2019-01-15T20:41:35.969Z,4.20
2019-01-15T20:44:19.689Z,4.20
2019-01-15T20:47:14.777Z,4.20
2019-01-15T20:50:13.309Z,4.20
2019-01-15T20:52:59.102Z,4.20
2019-01-15T20:55:49.073Z,4.20
2019-01-15T20:58:36.805Z,4.10
2019-01-15T21:01:22.486Z,4.20
2019-01-15T21:04:06.386Z,4.10
2019-01-15T21:07:06.777Z,4.10
2019-01-15T21:10:03.989Z,4.20
2019-01-15T21:12:59.818Z,4.10
2019-01-15T21:15:49.870Z,4.20
2019-01-15T21:18:35.481Z,4.20
2019-01-15T21:21:21.217Z,4.20
2019-01-15T21:24:14.325Z,4.10
2019-01-15T21:27:01.556Z,4.20
2019-01-15T21:29:50.881Z,4.20
2019-01-15T21:32:50.398Z,4.20
2019-01-15T21:35:35.922Z,4.20
2019-01-15T21:38:26.081Z,4.20
2019-01-15T21:41:27.323Z,4.20
2019-01-15T21:44:19.263Z,4.30
2019-01-15T21:47:06.069Z,4.20
2019-01-15T21:49:40.723Z,4.30
2019-01-15T21:52:47.834Z,4.30
2019-01-15T21:55:42.552Z,4.40
2019-01-15T21:58:25.970Z,4.40
2019-01-15T22:01:24.911Z,4.30
2019-01-15T22:04:13.348Z,4.40
2019-01-15T22:07:00.526Z,4.30
2019-01-15T22:09:56.562Z,4.30
2019-01-15T22:12:50.772Z,4.30
2019-01-15T22:15:32.673Z,4.30
2019-01-15T22:18:17.270Z,4.40
2019-01-15T22:21:24.018Z,4.40
2019-01-15T22:24:12.634Z,4.40
2019-01-15T22:26:59.611Z,4.40
2019-01-15T22:29:45.684Z,4.40
2019-01-15T22:32:31.297Z,4.40
2019-01-15T22:35:21.413Z,4.30
2019-01-15T22:38:06.539Z,4.40
2019-01-15T22:41:00.491Z,4.40
2019-01-15T22:43:43.804Z,4.40
2019-01-15T22:46:38.090Z,4.40
2019-01-15T22:49:27.800Z,4.40
2019-01-15T22:52:13.245Z,4.50
2019-01-15T22:54:50.952Z,4.40
2019-01-15T22:57:36.668Z,4.40
2019-01-15T23:00:34.911Z,4.40
2019-01-15T23:03:20.726Z,4.40
2019-01-15T23:06:06.323Z,4.40
2019-01-15T23:08:55.893Z,4.40
2019-01-15T23:11:47.462Z,4.40
2019-01-15T23:14:35.094Z,4.40
2019-01-15T23:17:22.322Z,4.40
2019-01-15T23:20:10.215Z,4.50
2019-01-15T23:22:56.237Z,4.50
2019-01-15T23:25:46.418Z,4.50
2019-01-15T23:28:33.793Z,4.50
2019-01-15T23:31:30.319Z,4.50
2019-01-15T23:34:19.033Z,4.40
2019-01-15T23:37:08.746Z,4.40
2019-01-15T23:39:55.856Z,4.40
2019-01-15T23:42:51.888Z,4.40
2019-01-15T23:45:43.799Z,4.40
2019-01-15T23:48:33.619Z,4.50
2019-01-15T23:51:13.377Z,4.50
2019-01-15T23:54:06.230Z,4.40
2019-01-15T23:56:45.502Z,4.40
2019-01-15T23:59:31.532Z,4.50
